createdAt,value
2019-06-08T00:02:22.945Z,14.42
2019-06-08T00:04:52.938Z,14.47
2019-06-08T00:07:23.102Z,14.42
2019-06-08T00:09:52.635Z,14.46
2019-06-08T00:12:23.264Z,14.42
2019-06-08T00:14:58.776Z,14.31
2019-06-08T00:17:37.971Z,14.36
2019-06-08T00:19:59.379Z,14.40
2019-06-08T00:22:28.687Z,13.79
2019-06-08T00:24:58.196Z,13.40
2019-06-08T00:27:27.986Z,13.17
2019-06-08T00:29:57.324Z,13.15
2019-06-08T00:32:26.686Z,13.30
2019-06-08T00:34:56.091Z,13.34
2019-06-08T00:37:25.440Z,13.43
2019-06-08T00:39:54.861Z,13.42
2019-06-08T00:42:25.572Z,13.16
2019-06-08T00:44:55.180Z,13.04
2019-06-08T00:47:24.751Z,13.12
2019-06-08T00:49:54.427Z,13.12
2019-06-08T00:52:23.781Z,13.21
2019-06-08T00:54:53.515Z,13.15
2019-06-08T00:57:23.851Z,13.30
2019-06-08T00:59:53.278Z,13.45
2019-06-08T01:02:22.716Z,13.42
2019-06-08T01:04:52.053Z,13.53
2019-06-08T01:07:22.014Z,13.64
2019-06-08T01:09:51.680Z,13.60
2019-06-08T01:12:21.021Z,13.26
2019-06-08T01:14:50.351Z,13.12
2019-06-08T01:17:20.990Z,13.14
2019-06-08T01:19:50.473Z,13.07
2019-06-08T01:22:19.819Z,12.85
2019-06-08T01:24:49.270Z,12.56
2019-06-08T01:27:19.948Z,12.75
2019-06-08T01:29:49.420Z,12.78
2019-06-08T01:32:18.864Z,12.81
2019-06-08T01:34:52.460Z,12.69
2019-06-08T01:37:22.969Z,12.46
2019-06-08T01:39:53.243Z,12.26
2019-06-08T01:42:23.570Z,12.32
2019-06-08T01:44:52.908Z,12.34
2019-06-08T01:47:22.293Z,12.36
2019-06-08T01:49:51.673Z,12.37
2019-06-08T01:52:20.969Z,12.66
2019-06-08T01:54:50.709Z,12.69
2019-06-08T01:57:20.168Z,12.86
2019-06-08T01:59:49.495Z,12.96
2019-06-08T02:02:18.923Z,12.63
2019-06-08T02:04:48.598Z,12.31
2019-06-08T02:07:17.941Z,11.97
2019-06-08T02:09:47.311Z,11.43
2019-06-08T02:12:17.003Z,11.25
2019-06-08T02:14:46.445Z,11.49
2019-06-08T02:17:15.877Z,11.64
2019-06-08T02:19:45.172Z,11.63
2019-06-08T02:22:14.507Z,11.55
2019-06-08T02:24:43.924Z,11.42
2019-06-08T02:27:13.629Z,11.74
2019-06-08T02:29:42.956Z,12.01
2019-06-08T02:32:12.335Z,11.94
2019-06-08T02:34:41.672Z,11.86
2019-06-08T02:37:11.012Z,11.93
2019-06-08T02:39:40.371Z,11.89
2019-06-08T02:42:10.054Z,12.05
2019-06-08T02:44:40.655Z,12.09
2019-06-08T02:47:10.649Z,11.91
2019-06-08T02:49:39.969Z,11.99
2019-06-08T02:52:10.795Z,11.86
2019-06-08T02:54:41.169Z,11.72
2019-06-08T02:57:12.343Z,11.50
2019-06-08T02:59:42.680Z,11.41
2019-06-08T03:02:13.626Z,11.53
2019-06-08T03:04:42.976Z,11.66
2019-06-08T03:07:14.148Z,11.80
2019-06-08T03:09:44.986Z,11.82
2019-06-08T03:12:14.307Z,11.79
2019-06-08T03:14:45.236Z,11.49
2019-06-08T03:17:14.666Z,11.45
2019-06-08T03:19:44.413Z,11.62
2019-06-08T03:22:13.757Z,11.65
2019-06-08T03:24:44.179Z,11.64
2019-06-08T03:27:13.811Z,11.78
2019-06-08T03:29:44.052Z,11.81
2019-06-08T03:32:13.815Z,11.76
2019-06-08T03:34:54.679Z,11.69
2019-06-08T03:37:14.464Z,11.87
2019-06-08T03:39:45.343Z,11.85
2019-06-08T03:42:16.349Z,11.77
2019-06-08T03:44:45.730Z,11.75
2019-06-08T03:47:15.083Z,11.71
2019-06-08T03:49:56.130Z,11.72
2019-06-08T03:52:15.402Z,11.59
2019-06-08T03:54:47.165Z,11.60
2019-06-08T03:57:16.964Z,11.83
2019-06-08T03:59:47.844Z,11.71
2019-06-08T04:02:17.836Z,11.82
2019-06-08T04:04:49.861Z,11.99
2019-06-08T04:07:19.357Z,12.16
2019-06-08T04:29:25.924Z,13.41
2019-06-08T04:32:14.310Z,13.50
2019-06-08T04:35:02.708Z,13.22
2019-06-08T04:37:51.136Z,13.18
2019-06-08T04:40:40.094Z,13.38
2019-06-08T04:43:28.726Z,13.38
2019-06-08T04:46:17.204Z,13.41
2019-06-08T04:49:05.647Z,13.42
2019-06-08T04:51:54.237Z,13.21
2019-06-08T04:54:42.710Z,13.48
2019-06-08T04:57:30.696Z,13.65
2019-06-08T05:00:19.498Z,13.90
2019-06-08T05:03:07.373Z,14.17
2019-06-08T05:05:55.520Z,14.17
2019-06-08T05:08:45.131Z,14.62
2019-06-08T05:11:36.209Z,14.92
2019-06-08T05:14:22.421Z,15.23
2019-06-08T05:17:10.772Z,15.68
2019-06-08T05:19:59.394Z,15.90
2019-06-08T05:22:47.789Z,16.18
2019-06-08T05:25:35.553Z,16.08
2019-06-08T05:28:23.665Z,16.41
2019-06-08T05:31:12.040Z,16.65
2019-06-08T05:34:00.128Z,16.95
2019-06-08T05:36:49.771Z,16.95
2019-06-08T05:39:39.443Z,17.50
2019-06-08T05:42:27.968Z,17.75
2019-06-08T05:45:16.921Z,17.25
2019-06-08T05:48:05.207Z,17.46
2019-06-08T05:51:03.191Z,17.74
2019-06-08T05:53:43.823Z,18.45
2019-06-08T05:56:32.377Z,18.73
2019-06-08T05:59:23.451Z,18.93
2019-06-08T06:02:11.751Z,19.14
2019-06-08T06:05:00.225Z,19.04
2019-06-08T06:07:49.046Z,19.25
2019-06-08T06:10:37.322Z,19.39
2019-06-08T06:13:25.885Z,19.98
2019-06-08T06:16:13.870Z,19.67
2019-06-08T06:19:02.261Z,20.09
2019-06-08T06:21:51.518Z,20.62
2019-06-08T06:24:41.756Z,20.46
2019-06-08T06:27:30.367Z,20.59
2019-06-08T06:30:19.459Z,20.83
2019-06-08T06:33:07.861Z,20.22
2019-06-08T06:35:56.460Z,20.79
2019-06-08T06:38:44.129Z,20.52
2019-06-08T06:41:32.356Z,21.02
2019-06-08T06:44:20.244Z,21.14
2019-06-08T06:47:08.645Z,21.27
2019-06-08T06:49:57.126Z,22.01
2019-06-08T06:52:46.589Z,22.82
2019-06-08T06:55:35.853Z,22.93
2019-06-08T06:58:23.902Z,23.15
2019-06-08T07:01:12.602Z,23.80
2019-06-08T07:04:07.797Z,23.49
2019-06-08T07:06:52.773Z,24.02
2019-06-08T07:09:40.998Z,23.63
2019-06-08T07:12:31.783Z,23.94
2019-06-08T07:15:26.907Z,24.12
2019-06-08T07:18:14.975Z,23.87
2019-06-08T07:21:02.962Z,23.67
2019-06-08T07:23:53.623Z,23.69
2019-06-08T07:26:40.466Z,24.18
2019-06-08T07:29:28.857Z,24.57
2019-06-08T07:32:17.168Z,24.58
2019-06-08T07:35:09.289Z,24.42
2019-06-08T07:37:57.212Z,24.48
2019-06-08T07:40:47.238Z,25.00
2019-06-08T07:43:35.141Z,25.28
2019-06-08T07:46:23.533Z,25.21
2019-06-08T07:49:11.680Z,25.32
2019-06-08T07:52:09.708Z,25.19
2019-06-08T07:54:49.745Z,25.76
2019-06-08T07:57:38.487Z,25.38
2019-06-08T08:00:31.549Z,25.32
2019-06-08T08:03:19.771Z,25.55
2019-06-08T08:06:07.890Z,25.94
2019-06-08T08:08:56.863Z,25.86
2019-06-08T08:11:45.376Z,26.40
2019-06-08T08:14:33.801Z,26.35
2019-06-08T08:17:21.571Z,26.28
2019-06-08T08:20:09.741Z,26.33
2019-06-08T08:23:04.155Z,26.38
2019-06-08T08:25:47.470Z,26.60
2019-06-08T08:28:37.511Z,26.96
2019-06-08T08:31:27.667Z,26.95
2019-06-08T08:34:14.545Z,27.04
2019-06-08T08:37:06.229Z,26.70
2019-06-08T08:39:53.462Z,27.17
2019-06-08T08:42:41.630Z,27.40
2019-06-08T08:45:29.337Z,27.72
2019-06-08T08:48:25.405Z,27.42
2019-06-08T08:51:08.598Z,27.63
2019-06-08T08:54:01.271Z,28.11
2019-06-08T08:56:50.464Z,28.32
2019-06-08T08:59:34.812Z,28.13
2019-06-08T09:02:23.040Z,28.28
2019-06-08T09:05:11.520Z,28.37
2019-06-08T09:08:02.089Z,28.37
2019-06-08T09:10:48.900Z,28.34
2019-06-08T09:13:37.711Z,28.25
2019-06-08T09:16:28.569Z,28.37
2019-06-08T09:19:20.638Z,28.19
2019-06-08T09:22:04.967Z,28.26
2019-06-08T09:24:54.133Z,28.60
2019-06-08T09:27:43.189Z,28.69
2019-06-08T09:30:31.045Z,28.69
2019-06-08T09:33:19.456Z,28.75
2019-06-08T09:36:08.240Z,28.90
2019-06-08T09:38:59.603Z,29.06
2019-06-08T09:41:47.963Z,29.06
2019-06-08T09:44:37.592Z,28.97
2019-06-08T09:47:24.875Z,28.98
2019-06-08T09:50:13.048Z,28.63
2019-06-08T09:53:18.293Z,29.00
2019-06-08T09:55:50.371Z,29.11
2019-06-08T09:58:39.226Z,29.27
2019-06-08T10:01:28.594Z,29.13
2019-06-08T10:04:17.397Z,29.20
2019-06-08T10:07:05.715Z,29.32
2019-06-08T10:09:58.744Z,29.72
2019-06-08T10:12:44.949Z,29.41
2019-06-08T10:15:33.405Z,29.71
2019-06-08T10:18:21.468Z,29.87
2019-06-08T10:21:09.748Z,29.81
2019-06-08T10:24:01.053Z,29.89
2019-06-08T10:26:48.050Z,29.71
2019-06-08T10:29:38.196Z,29.68
2019-06-08T10:32:28.202Z,30.08
2019-06-08T10:35:18.525Z,30.39
2019-06-08T10:38:11.247Z,30.63
2019-06-08T10:41:09.155Z,30.55
2019-06-08T10:43:50.890Z,30.22
2019-06-08T10:46:40.584Z,30.16
2019-06-08T10:49:28.771Z,30.01
2019-06-08T10:52:20.108Z,30.32
2019-06-08T10:55:10.471Z,30.23
2019-06-08T10:57:58.105Z,30.39
2019-06-08T11:00:48.094Z,30.29
2019-06-08T11:03:38.685Z,30.59
2019-06-08T11:06:25.260Z,30.45
2019-06-08T11:09:15.318Z,30.64
2019-06-08T11:12:03.896Z,30.55
2019-06-08T11:14:52.395Z,30.69
2019-06-08T11:17:40.769Z,30.71
2019-06-08T11:20:30.218Z,30.88
2019-06-08T11:23:18.850Z,31.13
2019-06-08T11:26:13.555Z,31.32
2019-06-08T11:28:58.626Z,31.16
2019-06-08T11:31:48.403Z,31.24
2019-06-08T11:34:37.460Z,31.16
2019-06-08T11:37:24.681Z,30.67
2019-06-08T11:40:13.030Z,30.72
2019-06-08T11:43:02.270Z,30.90
2019-06-08T11:45:50.287Z,30.99
2019-06-08T11:48:41.377Z,30.38
2019-06-08T11:51:29.632Z,31.01
2019-06-08T11:54:29.534Z,30.75
2019-06-08T11:57:09.976Z,30.56
2019-06-08T11:59:58.352Z,30.05
2019-06-08T12:02:45.576Z,30.37
2019-06-08T12:05:33.608Z,30.91
2019-06-08T12:08:24.389Z,30.59
2019-06-08T12:11:18.187Z,31.32
2019-06-08T12:14:02.840Z,30.86
2019-06-08T12:16:51.553Z,30.80
2019-06-08T12:19:39.231Z,30.40
2019-06-08T12:22:27.633Z,30.01
2019-06-08T12:25:16.056Z,29.62
2019-06-08T12:28:04.586Z,29.72
2019-06-08T12:30:53.010Z,30.55
2019-06-08T12:33:41.525Z,31.01
2019-06-08T12:36:30.740Z,30.54
2019-06-08T12:39:21.047Z,30.59
2019-06-08T12:42:09.556Z,30.74
2019-06-08T12:44:58.734Z,30.39
2019-06-08T12:47:47.941Z,30.91
2019-06-08T12:50:35.905Z,30.62
2019-06-08T12:53:24.379Z,31.08
2019-06-08T12:56:13.546Z,30.91
2019-06-08T12:59:02.129Z,29.90
2019-06-08T13:01:49.855Z,30.02
2019-06-08T13:04:38.521Z,30.67
2019-06-08T13:07:28.125Z,31.26
2019-06-08T13:10:22.463Z,31.29
2019-06-08T13:13:08.477Z,30.84
2019-06-08T13:15:58.020Z,30.30
2019-06-08T13:18:48.192Z,29.95
2019-06-08T13:21:38.331Z,29.66
2019-06-08T13:24:28.415Z,29.54
2019-06-08T13:27:16.625Z,29.36
2019-06-08T13:30:07.387Z,29.70
2019-06-08T13:32:54.210Z,29.37
2019-06-08T13:35:42.627Z,29.33
2019-06-08T13:38:30.999Z,29.35
2019-06-08T13:41:23.665Z,29.47
2019-06-08T13:44:08.564Z,29.62
2019-06-08T13:46:57.824Z,29.52
2019-06-08T13:49:47.871Z,29.30
2019-06-08T13:52:35.308Z,29.13
2019-06-08T13:55:42.584Z,28.93
2019-06-08T13:58:13.216Z,28.95
2019-06-08T14:01:01.566Z,28.83
2019-06-08T14:03:50.078Z,28.70
2019-06-08T14:06:38.311Z,28.67
2019-06-08T14:09:28.537Z,28.86
2019-06-08T14:12:19.791Z,28.88
2019-06-08T14:15:11.890Z,29.10
2019-06-08T14:18:00.485Z,30.46
2019-06-08T14:20:48.514Z,31.24
2019-06-08T14:23:41.875Z,31.41
2019-06-08T14:26:29.748Z,31.25
2019-06-08T14:29:20.165Z,31.19
2019-06-08T14:32:07.914Z,31.81
2019-06-08T14:34:58.342Z,32.31
2019-06-08T14:37:48.058Z,32.21
2019-06-08T14:40:34.913Z,32.10
2019-06-08T14:43:23.094Z,32.34
2019-06-08T14:46:10.783Z,32.48
2019-06-08T14:48:59.475Z,32.32
2019-06-08T14:51:50.991Z,32.22
2019-06-08T14:54:40.734Z,32.15
2019-06-08T14:57:30.782Z,32.59
2019-06-08T15:00:22.977Z,32.89
2019-06-08T15:03:11.864Z,32.35
2019-06-08T15:06:00.016Z,32.63
2019-06-08T15:08:50.367Z,32.74
2019-06-08T15:11:38.153Z,32.58
2019-06-08T15:14:32.647Z,33.01
2019-06-08T15:17:16.722Z,32.41
2019-06-08T15:20:05.072Z,32.66
2019-06-08T15:22:53.153Z,31.96
2019-06-08T15:25:41.653Z,32.31
2019-06-08T15:28:35.633Z,32.74
2019-06-08T15:31:21.044Z,33.30
2019-06-08T15:34:10.783Z,33.05
2019-06-08T15:36:59.016Z,32.94
2019-06-08T15:39:48.635Z,32.88
2019-06-08T15:42:36.745Z,31.33
2019-06-08T15:45:26.278Z,30.11
2019-06-08T15:48:14.336Z,29.71
2019-06-08T15:51:02.095Z,29.45
2019-06-08T15:53:50.564Z,29.06
2019-06-08T15:56:48.481Z,28.85
2019-06-08T15:59:37.968Z,28.96
2019-06-08T16:02:23.082Z,28.76
2019-06-08T16:05:11.388Z,28.70
2019-06-08T16:07:59.688Z,28.59
2019-06-08T16:10:47.777Z,28.60
2019-06-08T16:13:40.374Z,28.57
2019-06-08T16:16:29.156Z,28.52
2019-06-08T16:19:17.528Z,28.62
2019-06-08T16:22:15.301Z,28.56
2019-06-08T16:25:05.040Z,28.39
2019-06-08T16:27:53.274Z,28.16
2019-06-08T16:30:40.921Z,28.19
2019-06-08T16:33:29.316Z,28.20
2019-06-08T16:36:17.486Z,27.93
2019-06-08T16:39:06.813Z,27.91
2019-06-08T16:41:55.292Z,27.75
2019-06-08T16:44:43.623Z,27.67
2019-06-08T16:47:31.174Z,27.50
2019-06-08T16:50:24.461Z,27.38
2019-06-08T16:53:08.975Z,27.20
2019-06-08T16:55:57.401Z,27.09
2019-06-08T16:58:46.887Z,27.17
2019-06-08T17:01:35.042Z,27.14
2019-06-08T17:04:23.003Z,27.17
2019-06-08T17:07:11.196Z,27.21
2019-06-08T17:09:58.938Z,27.12
2019-06-08T17:12:46.631Z,27.04
2019-06-08T17:15:36.125Z,27.05
2019-06-08T17:18:24.604Z,26.96
2019-06-08T17:21:12.616Z,26.93
2019-06-08T17:24:01.032Z,26.85
2019-06-08T17:26:49.497Z,26.70
2019-06-08T17:29:39.026Z,26.72
2019-06-08T17:32:27.696Z,26.51
2019-06-08T17:35:16.048Z,26.41
2019-06-08T17:38:04.473Z,26.40
2019-06-08T17:40:52.807Z,26.26
2019-06-08T17:43:40.574Z,26.02
2019-06-08T17:46:28.651Z,25.79
2019-06-08T17:49:17.125Z,25.78
2019-06-08T17:52:05.269Z,25.74
2019-06-08T17:54:53.535Z,25.56
2019-06-08T17:58:14.191Z,25.44
2019-06-08T18:01:03.621Z,25.43
2019-06-08T18:03:52.063Z,25.33
2019-06-08T18:06:41.484Z,25.31
2019-06-08T18:09:29.384Z,25.20
2019-06-08T18:12:18.623Z,25.18
2019-06-08T18:15:07.641Z,25.08
2019-06-08T18:17:57.682Z,25.09
2019-06-08T18:20:48.032Z,25.01
2019-06-08T18:23:34.878Z,24.93
2019-06-08T18:26:24.186Z,24.88
2019-06-08T18:29:12.129Z,24.94
2019-06-08T18:32:00.521Z,24.86
2019-06-08T18:34:48.877Z,24.66
2019-06-08T18:37:39.694Z,24.75
2019-06-08T18:40:27.824Z,24.87
2019-06-08T18:43:19.612Z,24.80
2019-06-08T18:46:07.916Z,24.79
2019-06-08T18:48:57.919Z,24.71
2019-06-08T18:51:48.375Z,24.78
2019-06-08T18:54:38.037Z,24.64
2019-06-08T18:57:27.385Z,24.54
2019-06-08T19:00:14.637Z,24.66
2019-06-08T19:03:03.386Z,24.55
2019-06-08T19:05:52.123Z,24.56
2019-06-08T19:08:43.201Z,24.67
2019-06-08T19:11:29.607Z,24.66
2019-06-08T19:14:20.730Z,24.59
2019-06-08T19:17:07.648Z,24.49
2019-06-08T19:19:58.017Z,24.23
2019-06-08T19:22:48.590Z,23.94
2019-06-08T19:25:34.493Z,23.69
2019-06-08T19:28:35.719Z,23.45
2019-06-08T19:31:12.746Z,23.26
2019-06-08T19:34:00.873Z,22.97
2019-06-08T19:36:54.187Z,22.98
2019-06-08T19:39:43.122Z,22.94
2019-06-08T19:42:39.115Z,22.91
2019-06-08T19:45:18.797Z,22.90
2019-06-08T19:48:08.351Z,22.95
2019-06-08T19:50:58.202Z,22.95
2019-06-08T19:53:51.406Z,22.84
2019-06-08T19:56:35.691Z,22.91
2019-06-08T19:59:24.366Z,22.89
2019-06-08T20:02:13.859Z,23.08
2019-06-08T20:05:02.638Z,23.00
2019-06-08T20:07:50.409Z,23.03
2019-06-08T20:10:38.444Z,23.05
2019-06-08T20:13:26.781Z,22.95
2019-06-08T20:16:17.281Z,22.77
2019-06-08T20:19:07.973Z,22.69
2019-06-08T20:21:55.347Z,22.40
2019-06-08T20:24:44.214Z,22.44
2019-06-08T20:27:33.139Z,22.33
2019-06-08T20:30:21.465Z,22.21
2019-06-08T20:33:09.521Z,22.10
2019-06-08T20:35:58.551Z,22.00
2019-06-08T20:38:47.493Z,21.83
2019-06-08T20:41:37.718Z,21.77
2019-06-08T20:44:29.975Z,21.63
2019-06-08T20:47:17.873Z,21.49
2019-06-08T20:50:07.320Z,21.33
2019-06-08T20:52:54.092Z,21.26
2019-06-08T20:55:43.154Z,21.20
2019-06-08T20:58:31.952Z,21.30
2019-06-08T21:01:20.155Z,21.24
2019-06-08T21:04:07.816Z,20.97
2019-06-08T21:06:57.342Z,21.11
2019-06-08T21:09:47.079Z,20.93
2019-06-08T21:12:34.607Z,20.84
2019-06-08T21:15:22.703Z,20.53
2019-06-08T21:18:10.915Z,20.37
2019-06-08T21:20:59.022Z,20.26
2019-06-08T21:23:51.656Z,20.20
2019-06-08T21:26:36.844Z,20.09
2019-06-08T21:29:28.823Z,20.02
2019-06-08T21:32:14.633Z,19.89
2019-06-08T21:35:02.439Z,19.77
2019-06-08T21:37:52.902Z,19.75
2019-06-08T21:40:40.578Z,19.67
2019-06-08T21:43:28.756Z,19.70
2019-06-08T21:46:16.956Z,19.58
2019-06-08T21:49:04.915Z,19.14
2019-06-08T21:51:53.479Z,19.35
2019-06-08T21:54:42.063Z,19.24
2019-06-08T21:57:30.456Z,18.89
2019-06-08T22:00:35.687Z,18.63
2019-06-08T22:03:08.332Z,18.57
2019-06-08T22:05:58.879Z,18.35
2019-06-08T22:08:48.193Z,18.17
2019-06-08T22:11:37.618Z,18.30
2019-06-08T22:14:27.358Z,18.43
2019-06-08T22:17:18.413Z,18.33
2019-06-08T22:20:07.786Z,18.29
2019-06-08T22:22:55.149Z,18.20
2019-06-08T22:25:42.952Z,18.25
2019-06-08T22:28:30.684Z,18.15
2019-06-08T22:31:18.741Z,18.21
2019-06-08T22:34:09.509Z,17.94
2019-06-08T22:36:59.965Z,17.97
2019-06-08T22:39:47.882Z,18.00
2019-06-08T22:42:37.611Z,17.99
2019-06-08T22:45:28.160Z,17.87
2019-06-08T22:48:15.836Z,17.83
2019-06-08T22:51:04.514Z,17.65
2019-06-08T22:53:53.558Z,17.59
2019-06-08T22:56:47.654Z,17.45
2019-06-08T22:59:37.032Z,17.22
2019-06-08T23:02:23.972Z,16.98
2019-06-08T23:05:11.677Z,16.96
2019-06-08T23:08:03.562Z,17.27
2019-06-08T23:10:48.744Z,17.23
2019-06-08T23:13:37.693Z,17.19
2019-06-08T23:16:27.222Z,17.14
2019-06-08T23:19:17.395Z,17.11
2019-06-08T23:22:06.182Z,17.07
2019-06-08T23:24:53.969Z,17.08
2019-06-08T23:27:42.581Z,17.00
2019-06-08T23:30:30.275Z,17.12
2019-06-08T23:33:19.148Z,17.07
2019-06-08T23:36:44.962Z,16.93
2019-06-08T23:38:57.086Z,16.84
2019-06-08T23:41:45.233Z,16.83
2019-06-08T23:44:33.653Z,16.72
2019-06-08T23:47:21.772Z,16.73
2019-06-08T23:50:11.862Z,16.39
2019-06-08T23:53:00.690Z,16.50
2019-06-08T23:55:48.647Z,16.65
2019-06-08T23:58:37.232Z,16.59
